»·PEaware :: N4818D KRDD-KCEC

N4818D :: KRDD-KCEC

FLIGHT INFORMATION

Flight Status: Arrived
Operator: Privately registered:
United States
More flights under this callsign
Pilot: Ryan V. (26764)
Aircraft: CESSNA 172 SKYHAWK
(C172)
More flights by this aircraft type
Origin: KRDD Redding Mun
United States
Destination: KCEC McNamara
United States
More flights between these airports :: More routes between these airports
Route: +KENDL4 FOT V27 CEC
File this flight plan on PilotEdge
Remarks:
Altitude:
(Current/Filed)
10,000ft
Speed:
(Current/Filed)
110kts
Departed: 12-Aug-20 11:48 AM
Arrived: 12-Aug-20 01:11 PM
Distance/Time
Traveled:
116nm/1:23
Distance/Time
To Go:
Arrived

Flight Plot

Page will automatically refresh every two minutes.

Flight plan parsing failed; only flown route is shown


Map Options




Map Legend


Flown Route
Filed Route
Departure Airport
Arrival Airport
Navaid (VOR, NDB)
Fix

Horizontal Profiles

Position Reports

Time Latitude Longitude Heading Altitude Ground
Speed
12-Aug-20 11:31 40.510814 -122.297686 180 497ft 0kts
12-Aug-20 11:32 40.510814 -122.297686 180 497ft 0kts
12-Aug-20 11:33 40.510814 -122.297686 180 497ft 0kts
12-Aug-20 11:34 40.510814 -122.297686 180 497ft 0kts
12-Aug-20 11:36 40.510814 -122.297686 180 497ft 0kts
12-Aug-20 11:37 40.510814 -122.297686 180 497ft 0kts
12-Aug-20 11:38 40.510814 -122.297686 180 497ft 0kts
12-Aug-20 11:39 40.510814 -122.297686 180 497ft 0kts
12-Aug-20 11:40 40.510814 -122.297686 180 497ft 0kts
12-Aug-20 11:41 40.510814 -122.297686 180 497ft 0kts
12-Aug-20 11:42 40.510814 -122.297686 180 497ft 0kts
12-Aug-20 11:43 40.510802 -122.297659 325 497ft 0kts
12-Aug-20 11:44 40.510802 -122.297659 325 497ft 0kts
12-Aug-20 11:45 40.513873 -122.296290 359 499ft 25kts
12-Aug-20 11:46 40.520287 -122.295945 99 502ft 0kts
12-Aug-20 11:47 40.520252 -122.295475 95 502ft 15kts
12-Aug-20 11:48 40.507628 -122.294364 180 806ft 78kts
12-Aug-20 11:49 40.493723 -122.309556 240 1644ft 69kts
12-Aug-20 11:50 40.483214 -122.330879 238 2376ft 74kts
12-Aug-20 11:50 40.473176 -122.351113 237 2972ft 84kts
12-Aug-20 11:52 40.458209 -122.379562 236 3969ft 74kts
12-Aug-20 11:53 40.447293 -122.400246 237 4738ft 65kts
12-Aug-20 11:53 40.438181 -122.417539 236 5245ft 73kts
12-Aug-20 11:55 40.424193 -122.444031 236 5990ft 74kts
12-Aug-20 11:55 40.414544 -122.462290 236 6508ft 73kts
12-Aug-20 11:56 40.402989 -122.484144 236 7102ft 73kts
12-Aug-20 11:58 40.389562 -122.509519 235 7790ft 71kts
12-Aug-20 11:58 40.380043 -122.527539 235 8221ft 74kts
12-Aug-20 11:59 40.367930 -122.550426 235 8716ft 78kts
12-Aug-20 12:00 40.355342 -122.574166 235 9206ft 80kts
12-Aug-20 12:01 40.342686 -122.597993 237 9691ft 78kts
12-Aug-20 12:02 40.330076 -122.621780 237 10003ft 91kts
12-Aug-20 12:03 40.313647 -122.652781 236 10000ft 110kts
12-Aug-20 12:04 40.295673 -122.686564 236 10002ft 115kts
12-Aug-20 12:05 40.277260 -122.721145 236 10002ft 116kts
12-Aug-20 12:06 40.259035 -122.755998 248 9999ft 115kts
12-Aug-20 12:07 40.264358 -122.797402 284 10003ft 118kts
12-Aug-20 12:08 40.275893 -122.838048 285 10002ft 119kts
12-Aug-20 12:09 40.287653 -122.878611 285 10002ft 119kts
12-Aug-20 12:10 40.299364 -122.919051 286 10001ft 119kts
12-Aug-20 12:11 40.311112 -122.959625 286 10000ft 119kts
12-Aug-20 12:12 40.322845 -123.000194 287 9999ft 119kts
12-Aug-20 12:13 40.334585 -123.040847 287 9999ft 119kts
12-Aug-20 12:14 40.346316 -123.081533 287 9999ft 119kts
12-Aug-20 12:15 40.358068 -123.122354 288 9999ft 119kts
12-Aug-20 12:16 40.369825 -123.163227 287 10015ft 119kts
12-Aug-20 12:17 40.381517 -123.203972 287 10032ft 119kts
12-Aug-20 12:18 40.393158 -123.244600 286 10048ft 118kts
12-Aug-20 12:19 40.404754 -123.285150 286 10066ft 118kts
12-Aug-20 12:20 40.416337 -123.325707 286 10082ft 118kts
12-Aug-20 12:21 40.427883 -123.366203 285 10099ft 118kts
12-Aug-20 12:22 40.439437 -123.406789 285 10099ft 118kts
12-Aug-20 12:23 40.451008 -123.447555 284 10099ft 119kts
12-Aug-20 12:24 40.462681 -123.488777 286 10001ft 125kts
12-Aug-20 12:25 40.474617 -123.530735 286 9989ft 121kts
12-Aug-20 12:26 40.486275 -123.571915 286 9989ft 119kts
12-Aug-20 12:27 40.497859 -123.612927 286 9989ft 119kts
12-Aug-20 12:28 40.509393 -123.653829 285 9990ft 119kts
12-Aug-20 12:29 40.520958 -123.694901 285 9991ft 120kts
12-Aug-20 12:30 40.532560 -123.736171 285 9991ft 120kts
12-Aug-20 12:31 40.544119 -123.777352 285 9991ft 120kts
12-Aug-20 12:32 40.555641 -123.818635 285 9991ft 120kts
12-Aug-20 12:33 40.567147 -123.859767 285 9991ft 120kts
12-Aug-20 12:34 40.579163 -123.900843 301 9984ft 123kts
12-Aug-20 12:35 40.613414 -123.915474 339 9991ft 132kts
12-Aug-20 12:36 40.648879 -123.928027 338 9991ft 132kts
12-Aug-20 12:37 40.684206 -123.941040 338 9991ft 132kts
12-Aug-20 12:38 40.719402 -123.954123 338 9991ft 132kts
12-Aug-20 12:39 40.754744 -123.967297 338 9991ft 132kts
12-Aug-20 12:40 40.790082 -123.980488 338 9991ft 132kts
12-Aug-20 12:41 40.825348 -123.993668 338 9991ft 132kts
12-Aug-20 12:42 40.860578 -124.006849 338 9991ft 132kts
12-Aug-20 12:43 40.895938 -124.020094 338 9991ft 132kts
12-Aug-20 12:44 40.931181 -124.033309 338 9991ft 132kts
12-Aug-20 12:45 40.966523 -124.046576 338 9991ft 132kts
12-Aug-20 12:46 41.001791 -124.059844 338 9982ft 132kts
12-Aug-20 12:47 41.036967 -124.073069 338 9982ft 131kts
12-Aug-20 12:48 41.071972 -124.086252 338 9982ft 130kts
12-Aug-20 12:49 41.106561 -124.099295 338 9981ft 129kts
12-Aug-20 12:50 41.141159 -124.112352 338 9981ft 129kts
12-Aug-20 12:51 41.176422 -124.125729 339 9733ft 138kts
12-Aug-20 12:52 41.214034 -124.139898 339 9231ft 141kts
12-Aug-20 12:53 41.251874 -124.154215 339 8716ft 143kts
12-Aug-20 12:54 41.290790 -124.168968 340 8014ft 146kts
12-Aug-20 12:55 41.330011 -124.183822 340 7311ft 147kts
12-Aug-20 12:56 41.369186 -124.198713 340 6608ft 146kts
12-Aug-20 12:57 41.408395 -124.213639 340 5904ft 146kts
12-Aug-20 12:58 41.447505 -124.228545 340 5200ft 146kts
12-Aug-20 12:59 41.486507 -124.243426 340 4498ft 146kts
12-Aug-20 13:00 41.524933 -124.258044 340 3788ft 135kts
12-Aug-20 13:01 41.559993 -124.271419 340 3079ft 122kts
12-Aug-20 13:02 41.590173 -124.282970 340 2423ft 104kts
12-Aug-20 13:03 41.615876 -124.288555 3 2408ft 94kts
12-Aug-20 13:04 41.641712 -124.281349 7 2467ft 85kts
12-Aug-20 13:05 41.667612 -124.273263 8 2389ft 88kts
12-Aug-20 13:06 41.691639 -124.265414 8 1777ft 90kts
12-Aug-20 13:07 41.715541 -124.258385 11 1266ft 91kts
12-Aug-20 13:08 41.739737 -124.250765 12 762ft 87kts
12-Aug-20 13:09 41.763394 -124.243498 6 297ft 86kts
12-Aug-20 13:10 41.778006 -124.238900 13 52ft 35kts
12-Aug-20 13:11 41.778731 -124.235255 136 54ft 17kts

Navigation Log

Ident Type
Flight plan parsing failed, navigation log unavailable